sensor_id;sensor_type;location;lat;lon;timestamp;temperature;humidity
17178;DHT22;8704;52.006;4.374;2022-07-23T00:01:11;15.30;99.90
17178;DHT22;8704;52.006;4.374;2022-07-23T00:03:39;15.30;99.90
17178;DHT22;8704;52.006;4.374;2022-07-23T00:06:08;15.30;99.90
17178;DHT22;8704;52.006;4.374;2022-07-23T00:08:36;15.30;99.90
17178;DHT22;8704;52.006;4.374;2022-07-23T00:11:04;15.30;99.90
17178;DHT22;8704;52.006;4.374;2022-07-23T00:13:32;15.20;99.90
17178;DHT22;8704;52.006;4.374;2022-07-23T00:16:00;15.20;99.90
17178;DHT22;8704;52.006;4.374;2022-07-23T00:18:29;15.20;99.90
17178;DHT22;8704;52.006;4.374;2022-07-23T00:20:57;15.20;99.90
17178;DHT22;8704;52.006;4.374;2022-07-23T00:23:26;15.30;99.90
17178;DHT22;8704;52.006;4.374;2022-07-23T00:25:55;15.20;99.90
17178;DHT22;8704;52.006;4.374;2022-07-23T00:28:23;15.20;99.90
17178;DHT22;8704;52.006;4.374;2022-07-23T00:30:51;15.20;99.90
17178;DHT22;8704;52.006;4.374;2022-07-23T00:33:20;15.20;99.90
17178;DHT22;8704;52.006;4.374;2022-07-23T00:35:48;15.20;99.90
17178;DHT22;8704;52.006;4.374;2022-07-23T00:38:16;15.10;99.90
17178;DHT22;8704;52.006;4.374;2022-07-23T00:40:45;16.30;99.90
17178;DHT22;8704;52.006;4.374;2022-07-23T00:43:13;15.10;99.90
17178;DHT22;8704;52.006;4.374;2022-07-23T00:45:41;15.10;99.90
17178;DHT22;8704;52.006;4.374;2022-07-23T00:48:09;15.10;99.90
17178;DHT22;8704;52.006;4.374;2022-07-23T00:50:37;15.10;99.90
17178;DHT22;8704;52.006;4.374;2022-07-23T00:53:05;15.20;99.90
17178;DHT22;8704;52.006;4.374;2022-07-23T00:55:35;15.10;99.90
17178;DHT22;8704;52.006;4.374;2022-07-23T00:58:05;15.10;99.90
17178;DHT22;8704;52.006;4.374;2022-07-23T01:00:33;15.10;99.90
17178;DHT22;8704;52.006;4.374;2022-07-23T01:03:01;15.00;99.90
17178;DHT22;8704;52.006;4.374;2022-07-23T01:05:29;15.00;99.90
17178;DHT22;8704;52.006;4.374;2022-07-23T01:07:57;15.00;99.90
17178;DHT22;8704;52.006;4.374;2022-07-23T01:10:25;15.00;99.90
17178;DHT22;8704;52.006;4.374;2022-07-23T01:13:00;15.00;99.90
17178;DHT22;8704;52.006;4.374;2022-07-23T01:15:30;15.00;99.90
17178;DHT22;8704;52.006;4.374;2022-07-23T01:17:58;15.00;99.90
17178;DHT22;8704;52.006;4.374;2022-07-23T01:20:26;15.00;99.90
17178;DHT22;8704;52.006;4.374;2022-07-23T01:22:56;14.90;99.90
17178;DHT22;8704;52.006;4.374;2022-07-23T01:25:24;14.90;99.90
17178;DHT22;8704;52.006;4.374;2022-07-23T01:27:53;14.90;99.90
17178;DHT22;8704;52.006;4.374;2022-07-23T01:30:21;14.90;99.90
17178;DHT22;8704;52.006;4.374;2022-07-23T01:32:49;14.90;99.90
17178;DHT22;8704;52.006;4.374;2022-07-23T01:35:17;14.80;99.90
17178;DHT22;8704;52.006;4.374;2022-07-23T01:37:45;14.80;99.90
17178;DHT22;8704;52.006;4.374;2022-07-23T01:40:14;14.80;99.90
17178;DHT22;8704;52.006;4.374;2022-07-23T01:42:44;15.00;99.90
17178;DHT22;8704;52.006;4.374;2022-07-23T01:45:13;14.70;99.90
17178;DHT22;8704;52.006;4.374;2022-07-23T01:47:41;14.70;99.90
17178;DHT22;8704;52.006;4.374;2022-07-23T01:50:09;14.70;99.90
17178;DHT22;8704;52.006;4.374;2022-07-23T01:52:37;14.60;99.90
17178;DHT22;8704;52.006;4.374;2022-07-23T01:55:06;14.60;99.90
17178;DHT22;8704;52.006;4.374;2022-07-23T01:57:36;14.60;99.90
17178;DHT22;8704;52.006;4.374;2022-07-23T02:00:04;14.60;99.90
17178;DHT22;8704;52.006;4.374;2022-07-23T02:02:33;14.50;99.90
17178;DHT22;8704;52.006;4.374;2022-07-23T02:05:01;14.50;99.90
17178;DHT22;8704;52.006;4.374;2022-07-23T02:07:29;14.50;99.90
17178;DHT22;8704;52.006;4.374;2022-07-23T02:10:00;14.50;99.90
17178;DHT22;8704;52.006;4.374;2022-07-23T02:12:28;14.50;99.90
17178;DHT22;8704;52.006;4.374;2022-07-23T02:14:58;14.40;99.90
17178;DHT22;8704;52.006;4.374;2022-07-23T02:17:26;14.40;99.90
17178;DHT22;8704;52.006;4.374;2022-07-23T02:19:54;14.50;99.90
17178;DHT22;8704;52.006;4.374;2022-07-23T02:22:21;14.30;99.90
17178;DHT22;8704;52.006;4.374;2022-07-23T02:24:49;14.30;99.90
17178;DHT22;8704;52.006;4.374;2022-07-23T02:27:17;14.30;99.90
17178;DHT22;8704;52.006;4.374;2022-07-23T02:29:45;15.00;99.90
17178;DHT22;8704;52.006;4.374;2022-07-23T02:32:15;14.30;99.90
17178;DHT22;8704;52.006;4.374;2022-07-23T02:34:43;14.30;99.90
17178;DHT22;8704;52.006;4.374;2022-07-23T02:37:10;14.20;99.90
17178;DHT22;8704;52.006;4.374;2022-07-23T02:39:38;14.20;99.90
17178;DHT22;8704;52.006;4.374;2022-07-23T02:42:07;14.20;99.90
17178;DHT22;8704;52.006;4.374;2022-07-23T02:44:35;14.20;99.90
17178;DHT22;8704;52.006;4.374;2022-07-23T02:47:03;14.20;99.90
17178;DHT22;8704;52.006;4.374;2022-07-23T02:49:32;14.10;99.90
17178;DHT22;8704;52.006;4.374;2022-07-23T02:52:00;14.10;99.90
17178;DHT22;8704;52.006;4.374;2022-07-23T02:54:28;14.10;99.90
17178;DHT22;8704;52.006;4.374;2022-07-23T02:56:56;14.10;99.90
17178;DHT22;8704;52.006;4.374;2022-07-23T02:59:24;14.10;99.90
17178;DHT22;8704;52.006;4.374;2022-07-23T03:01:52;14.20;99.90
17178;DHT22;8704;52.006;4.374;2022-07-23T03:04:20;14.10;99.90
17178;DHT22;8704;52.006;4.374;2022-07-23T03:06:50;14.00;99.90
17178;DHT22;8704;52.006;4.374;2022-07-23T03:09:18;14.00;99.90
17178;DHT22;8704;52.006;4.374;2022-07-23T03:11:45;14.00;99.90
17178;DHT22;8704;52.006;4.374;2022-07-23T03:14:13;14.00;99.90
17178;DHT22;8704;52.006;4.374;2022-07-23T03:16:43;13.90;99.90
17178;DHT22;8704;52.006;4.374;2022-07-23T03:19:11;13.90;99.90
17178;DHT22;8704;52.006;4.374;2022-07-23T03:21:39;13.90;99.90
17178;DHT22;8704;52.006;4.374;2022-07-23T03:24:09;13.90;99.90
17178;DHT22;8704;52.006;4.374;2022-07-23T03:26:37;13.80;99.90
17178;DHT22;8704;52.006;4.374;2022-07-23T03:29:06;13.80;99.90
17178;DHT22;8704;52.006;4.374;2022-07-23T03:31:34;13.80;99.90
17178;DHT22;8704;52.006;4.374;2022-07-23T03:34:02;13.80;99.90
17178;DHT22;8704;52.006;4.374;2022-07-23T03:36:30;13.80;99.90
17178;DHT22;8704;52.006;4.374;2022-07-23T03:38:58;14.00;99.90
17178;DHT22;8704;52.006;4.374;2022-07-23T03:41:29;13.70;99.90
17178;DHT22;8704;52.006;4.374;2022-07-23T03:43:57;13.70;99.90
17178;DHT22;8704;52.006;4.374;2022-07-23T03:46:25;13.60;99.90
17178;DHT22;8704;52.006;4.374;2022-07-23T03:48:53;13.70;99.90
17178;DHT22;8704;52.006;4.374;2022-07-23T03:51:25;13.70;99.90
17178;DHT22;8704;52.006;4.374;2022-07-23T03:53:53;13.70;99.90
17178;DHT22;8704;52.006;4.374;2022-07-23T03:56:22;13.70;99.90
17178;DHT22;8704;52.006;4.374;2022-07-23T03:58:51;13.80;99.90
17178;DHT22;8704;52.006;4.374;2022-07-23T04:01:19;13.60;99.90
17178;DHT22;8704;52.006;4.374;2022-07-23T04:03:47;13.60;99.90
17178;DHT22;8704;52.006;4.374;2022-07-23T04:06:15;13.70;99.90
17178;DHT22;8704;52.006;4.374;2022-07-23T04:08:43;13.60;99.90
17178;DHT22;8704;52.006;4.374;2022-07-23T04:11:11;13.70;99.90
17178;DHT22;8704;52.006;4.374;2022-07-23T04:13:39;13.60;99.90
17178;DHT22;8704;52.006;4.374;2022-07-23T04:16:09;13.60;99.90
17178;DHT22;8704;52.006;4.374;2022-07-23T04:18:37;13.60;99.90
17178;DHT22;8704;52.006;4.374;2022-07-23T04:21:05;13.60;99.90
17178;DHT22;8704;52.006;4.374;2022-07-23T04:23:33;13.60;99.90
17178;DHT22;8704;52.006;4.374;2022-07-23T04:26:01;13.60;99.90
17178;DHT22;8704;52.006;4.374;2022-07-23T04:28:29;13.70;99.90
17178;DHT22;8704;52.006;4.374;2022-07-23T04:30:57;13.70;99.90
17178;DHT22;8704;52.006;4.374;2022-07-23T04:33:27;13.70;99.90
17178;DHT22;8704;52.006;4.374;2022-07-23T04:35:55;13.70;99.90
17178;DHT22;8704;52.006;4.374;2022-07-23T04:38:23;13.70;99.90
17178;DHT22;8704;52.006;4.374;2022-07-23T04:40:51;13.70;99.90
17178;DHT22;8704;52.006;4.374;2022-07-23T04:43:19;13.70;99.90
17178;DHT22;8704;52.006;4.374;2022-07-23T04:45:47;13.70;99.90
17178;DHT22;8704;52.006;4.374;2022-07-23T04:48:15;13.70;99.90
17178;DHT22;8704;52.006;4.374;2022-07-23T04:50:44;13.70;99.90
17178;DHT22;8704;52.006;4.374;2022-07-23T04:53:12;13.70;99.90
17178;DHT22;8704;52.006;4.374;2022-07-23T04:55:40;13.70;99.90
17178;DHT22;8704;52.006;4.374;2022-07-23T04:58:08;13.70;99.90
17178;DHT22;8704;52.006;4.374;2022-07-23T05:00:36;13.70;99.90
17178;DHT22;8704;52.006;4.374;2022-07-23T05:03:04;13.80;99.90
17178;DHT22;8704;52.006;4.374;2022-07-23T05:05:32;13.80;99.90
17178;DHT22;8704;52.006;4.374;2022-07-23T05:08:01;13.80;99.90
17178;DHT22;8704;52.006;4.374;2022-07-23T05:10:29;13.80;99.90
17178;DHT22;8704;52.006;4.374;2022-07-23T05:12:57;13.80;99.90
17178;DHT22;8704;52.006;4.374;2022-07-23T05:15:26;13.90;99.90
17178;DHT22;8704;52.006;4.374;2022-07-23T05:17:54;13.90;99.90
17178;DHT22;8704;52.006;4.374;2022-07-23T05:20:22;14.00;99.90
17178;DHT22;8704;52.006;4.374;2022-07-23T05:22:50;14.00;99.90
17178;DHT22;8704;52.006;4.374;2022-07-23T05:25:20;14.00;99.90
17178;DHT22;8704;52.006;4.374;2022-07-23T05:27:48;14.10;99.90
17178;DHT22;8704;52.006;4.374;2022-07-23T05:30:16;14.20;99.90
17178;DHT22;8704;52.006;4.374;2022-07-23T05:32:44;14.20;99.90
17178;DHT22;8704;52.006;4.374;2022-07-23T05:35:12;14.30;99.90
17178;DHT22;8704;52.006;4.374;2022-07-23T05:37:40;14.40;99.90
17178;DHT22;8704;52.006;4.374;2022-07-23T05:40:10;14.50;99.90
17178;DHT22;8704;52.006;4.374;2022-07-23T05:42:40;14.60;99.90
17178;DHT22;8704;52.006;4.374;2022-07-23T05:45:10;14.60;99.90
17178;DHT22;8704;52.006;4.374;2022-07-23T05:47:42;14.70;99.90
17178;DHT22;8704;52.006;4.374;2022-07-23T05:50:11;14.80;99.90
17178;DHT22;8704;52.006;4.374;2022-07-23T05:52:39;14.90;99.90
17178;DHT22;8704;52.006;4.374;2022-07-23T05:55:09;14.90;99.90
17178;DHT22;8704;52.006;4.374;2022-07-23T05:57:37;15.20;99.90
17178;DHT22;8704;52.006;4.374;2022-07-23T06:00:09;14.90;99.90
17178;DHT22;8704;52.006;4.374;2022-07-23T06:02:38;14.90;99.90
17178;DHT22;8704;52.006;4.374;2022-07-23T06:05:07;15.00;99.90
17178;DHT22;8704;52.006;4.374;2022-07-23T06:07:35;15.10;99.90
17178;DHT22;8704;52.006;4.374;2022-07-23T06:10:04;15.10;99.90
17178;DHT22;8704;52.006;4.374;2022-07-23T06:12:33;15.10;99.90
17178;DHT22;8704;52.006;4.374;2022-07-23T06:15:01;15.20;99.90
17178;DHT22;8704;52.006;4.374;2022-07-23T06:17:31;15.30;99.90
17178;DHT22;8704;52.006;4.374;2022-07-23T06:19:59;15.40;99.90
17178;DHT22;8704;52.006;4.374;2022-07-23T06:22:26;15.40;99.90
17178;DHT22;8704;52.006;4.374;2022-07-23T06:24:54;15.40;99.90
17178;DHT22;8704;52.006;4.374;2022-07-23T06:27:22;15.50;99.90
17178;DHT22;8704;52.006;4.374;2022-07-23T06:29:52;15.60;99.90
17178;DHT22;8704;52.006;4.374;2022-07-23T06:32:20;15.70;99.90
17178;DHT22;8704;52.006;4.374;2022-07-23T06:34:49;15.70;99.90
17178;DHT22;8704;52.006;4.374;2022-07-23T06:37:17;16.20;99.90
17178;DHT22;8704;52.006;4.374;2022-07-23T06:39:46;15.80;99.90
17178;DHT22;8704;52.006;4.374;2022-07-23T06:42:14;15.90;99.90
17178;DHT22;8704;52.006;4.374;2022-07-23T06:44:42;15.90;99.90
17178;DHT22;8704;52.006;4.374;2022-07-23T06:47:10;16.00;99.90
17178;DHT22;8704;52.006;4.374;2022-07-23T06:49:38;16.30;99.90
17178;DHT22;8704;52.006;4.374;2022-07-23T06:52:09;16.10;99.90
17178;DHT22;8704;52.006;4.374;2022-07-23T06:54:37;16.20;99.90
17178;DHT22;8704;52.006;4.374;2022-07-23T06:57:04;16.30;99.90
17178;DHT22;8704;52.006;4.374;2022-07-23T06:59:32;16.50;99.90
17178;DHT22;8704;52.006;4.374;2022-07-23T07:02:03;16.40;99.90
17178;DHT22;8704;52.006;4.374;2022-07-23T07:04:31;16.50;99.90
17178;DHT22;8704;52.006;4.374;2022-07-23T07:06:59;16.60;99.90
17178;DHT22;8704;52.006;4.374;2022-07-23T07:09:28;16.60;99.90
17178;DHT22;8704;52.006;4.374;2022-07-23T07:11:56;16.60;99.90
17178;DHT22;8704;52.006;4.374;2022-07-23T07:14:24;16.70;99.90
17178;DHT22;8704;52.006;4.374;2022-07-23T07:16:52;16.70;99.90
17178;DHT22;8704;52.006;4.374;2022-07-23T07:19:20;16.70;99.90
17178;DHT22;8704;52.006;4.374;2022-07-23T07:21:48;16.80;99.90
17178;DHT22;8704;52.006;4.374;2022-07-23T07:24:16;16.90;99.90
17178;DHT22;8704;52.006;4.374;2022-07-23T07:26:45;16.90;99.90
17178;DHT22;8704;52.006;4.374;2022-07-23T07:29:13;17.00;99.90
17178;DHT22;8704;52.006;4.374;2022-07-23T07:31:41;17.00;99.90
17178;DHT22;8704;52.006;4.374;2022-07-23T07:34:09;17.00;99.90
17178;DHT22;8704;52.006;4.374;2022-07-23T07:36:37;17.20;99.90
17178;DHT22;8704;52.006;4.374;2022-07-23T07:39:05;17.10;99.90
17178;DHT22;8704;52.006;4.374;2022-07-23T07:41:36;17.20;99.90
17178;DHT22;8704;52.006;4.374;2022-07-23T07:44:06;17.30;99.90
17178;DHT22;8704;52.006;4.374;2022-07-23T07:46:34;17.30;99.90
17178;DHT22;8704;52.006;4.374;2022-07-23T07:49:02;17.40;99.90
17178;DHT22;8704;52.006;4.374;2022-07-23T07:51:31;17.40;99.90
17178;DHT22;8704;52.006;4.374;2022-07-23T07:54:00;17.50;99.90
17178;DHT22;8704;52.006;4.374;2022-07-23T07:56:29;17.50;99.90
17178;DHT22;8704;52.006;4.374;2022-07-23T07:58:57;17.50;99.90
17178;DHT22;8704;52.006;4.374;2022-07-23T08:01:27;17.60;99.90
17178;DHT22;8704;52.006;4.374;2022-07-23T08:03:55;17.70;99.90
17178;DHT22;8704;52.006;4.374;2022-07-23T08:06:23;17.70;98.10
17178;DHT22;8704;52.006;4.374;2022-07-23T08:08:51;17.80;99.90
17178;DHT22;8704;52.006;4.374;2022-07-23T08:11:19;17.80;95.00
17178;DHT22;8704;52.006;4.374;2022-07-23T08:13:48;17.90;99.90
17178;DHT22;8704;52.006;4.374;2022-07-23T08:16:16;17.90;99.90
17178;DHT22;8704;52.006;4.374;2022-07-23T08:18:45;18.00;99.90
17178;DHT22;8704;52.006;4.374;2022-07-23T08:21:13;18.00;98.60
17178;DHT22;8704;52.006;4.374;2022-07-23T08:23:41;18.00;58.60
17178;DHT22;8704;52.006;4.374;2022-07-23T08:26:09;18.10;43.90
17178;DHT22;8704;52.006;4.374;2022-07-23T08:28:37;18.20;83.70
17178;DHT22;8704;52.006;4.374;2022-07-23T08:31:05;18.30;85.00
17178;DHT22;8704;52.006;4.374;2022-07-23T08:33:33;18.50;99.90
17178;DHT22;8704;52.006;4.374;2022-07-23T08:36:05;18.50;38.10
17178;DHT22;8704;52.006;4.374;2022-07-23T08:38:33;18.60;58.80
17178;DHT22;8704;52.006;4.374;2022-07-23T08:41:02;18.80;17.20
17178;DHT22;8704;52.006;4.374;2022-07-23T08:43:32;18.70;13.40
17178;DHT22;8704;52.006;4.374;2022-07-23T08:46:03;18.70;1.00
17178;DHT22;8704;52.006;4.374;2022-07-23T08:48:32;18.70;1.00
17178;DHT22;8704;52.006;4.374;2022-07-23T08:51:04;18.90;16.50
17178;DHT22;8704;52.006;4.374;2022-07-23T08:53:34;18.80;1.00
17178;DHT22;8704;52.006;4.374;2022-07-23T08:56:05;18.80;68.70
17178;DHT22;8704;52.006;4.374;2022-07-23T08:58:35;19.10;27.00
17178;DHT22;8704;52.006;4.374;2022-07-23T09:01:04;18.90;18.50
17178;DHT22;8704;52.006;4.374;2022-07-23T09:03:34;19.00;19.50
17178;DHT22;8704;52.006;4.374;2022-07-23T09:06:04;19.00;1.00
17178;DHT22;8704;52.006;4.374;2022-07-23T09:08:36;19.00;1.00
17178;DHT22;8704;52.006;4.374;2022-07-23T09:11:06;19.30;1.00
17178;DHT22;8704;52.006;4.374;2022-07-23T09:13:37;19.30;46.40
17178;DHT22;8704;52.006;4.374;2022-07-23T09:16:07;19.40;11.90
17178;DHT22;8704;52.006;4.374;2022-07-23T09:18:39;19.50;1.00
17178;DHT22;8704;52.006;4.374;2022-07-23T09:21:21;19.50;19.30
17178;DHT22;8704;52.006;4.374;2022-07-23T09:23:55;19.60;21.30
17178;DHT22;8704;52.006;4.374;2022-07-23T09:26:32;19.70;8.00
17178;DHT22;8704;52.006;4.374;2022-07-23T09:29:06;19.80;34.00
17178;DHT22;8704;52.006;4.374;2022-07-23T09:31:42;20.00;1.00
17178;DHT22;8704;52.006;4.374;2022-07-23T09:34:13;19.90;1.30
17178;DHT22;8704;52.006;4.374;2022-07-23T09:36:43;20.00;1.00
17178;DHT22;8704;52.006;4.374;2022-07-23T09:39:12;20.10;1.00
17178;DHT22;8704;52.006;4.374;2022-07-23T09:41:42;20.20;1.00
17178;DHT22;8704;52.006;4.374;2022-07-23T09:44:13;20.30;1.00
17178;DHT22;8704;52.006;4.374;2022-07-23T09:46:43;20.30;1.00
17178;DHT22;8704;52.006;4.374;2022-07-23T09:49:14;20.50;1.00
17178;DHT22;8704;52.006;4.374;2022-07-23T09:51:52;20.60;1.00
17178;DHT22;8704;52.006;4.374;2022-07-23T09:54:30;20.70;1.00
17178;DHT22;8704;52.006;4.374;2022-07-23T09:57:02;20.90;1.00
17178;DHT22;8704;52.006;4.374;2022-07-23T09:59:34;21.10;1.00
17178;DHT22;8704;52.006;4.374;2022-07-23T10:02:04;21.00;1.00
17178;DHT22;8704;52.006;4.374;2022-07-23T10:04:33;21.20;1.00
17178;DHT22;8704;52.006;4.374;2022-07-23T10:07:06;21.40;1.00
17178;DHT22;8704;52.006;4.374;2022-07-23T10:09:36;21.60;1.00
17178;DHT22;8704;52.006;4.374;2022-07-23T10:12:09;21.90;1.00
17178;DHT22;8704;52.006;4.374;2022-07-23T10:14:44;22.10;1.00
17178;DHT22;8704;52.006;4.374;2022-07-23T10:17:11;22.10;1.00
17178;DHT22;8704;52.006;4.374;2022-07-23T10:19:39;22.20;1.00
17178;DHT22;8704;52.006;4.374;2022-07-23T10:22:11;22.10;1.00
17178;DHT22;8704;52.006;4.374;2022-07-23T10:24:47;22.00;99.90
17178;DHT22;8704;52.006;4.374;2022-07-23T10:27:44;22.10;1.00
17178;DHT22;8704;52.006;4.374;2022-07-23T10:30:19;22.30;99.90
17178;DHT22;8704;52.006;4.374;2022-07-23T10:32:56;22.60;99.90
17178;DHT22;8704;52.006;4.374;2022-07-23T10:35:39;22.70;1.00
17178;DHT22;8704;52.006;4.374;2022-07-23T10:38:15;22.70;99.90
17178;DHT22;8704;52.006;4.374;2022-07-23T10:40:57;22.80;1.00
17178;DHT22;8704;52.006;4.374;2022-07-23T10:43:27;22.90;1.00
17178;DHT22;8704;52.006;4.374;2022-07-23T10:46:23;23.00;1.00
17178;DHT22;8704;52.006;4.374;2022-07-23T10:49:26;23.00;1.00
17178;DHT22;8704;52.006;4.374;2022-07-23T10:52:15;23.00;99.90
17178;DHT22;8704;52.006;4.374;2022-07-23T10:54:47;23.90;1.00
17178;DHT22;8704;52.006;4.374;2022-07-23T10:57:16;23.50;1.00
17178;DHT22;8704;52.006;4.374;2022-07-23T11:02:53;23.70;35.00
17178;DHT22;8704;52.006;4.374;2022-07-23T11:05:22;23.90;99.90
17178;DHT22;8704;52.006;4.374;2022-07-23T11:08:16;23.70;1.00
17178;DHT22;8704;52.006;4.374;2022-07-23T11:10:49;23.90;1.00
17178;DHT22;8704;52.006;4.374;2022-07-23T11:13:28;24.30;99.90
17178;DHT22;8704;52.006;4.374;2022-07-23T11:16:13;24.30;99.90
17178;DHT22;8704;52.006;4.374;2022-07-23T11:19:07;24.30;98.50
17178;DHT22;8704;52.006;4.374;2022-07-23T11:21:49;24.40;1.00
17178;DHT22;8704;52.006;4.374;2022-07-23T11:24:19;24.70;99.90
17178;DHT22;8704;52.006;4.374;2022-07-23T11:26:51;24.80;1.00
17178;DHT22;8704;52.006;4.374;2022-07-23T11:29:48;25.00;1.00
17178;DHT22;8704;52.006;4.374;2022-07-23T11:32:22;25.10;99.90
17178;DHT22;8704;52.006;4.374;2022-07-23T11:34:52;25.20;96.30
17178;DHT22;8704;52.006;4.374;2022-07-23T11:37:32;25.30;99.90
17178;DHT22;8704;52.006;4.374;2022-07-23T11:40:03;25.50;99.90
17178;DHT22;8704;52.006;4.374;2022-07-23T11:42:34;25.70;99.90
17178;DHT22;8704;52.006;4.374;2022-07-23T11:45:03;25.90;99.90
17178;DHT22;8704;52.006;4.374;2022-07-23T11:47:31;26.00;99.90
17178;DHT22;8704;52.006;4.374;2022-07-23T11:50:01;25.90;1.00
17178;DHT22;8704;52.006;4.374;2022-07-23T11:52:29;25.90;1.00
17178;DHT22;8704;52.006;4.374;2022-07-23T11:55:00;26.00;1.00
17178;DHT22;8704;52.006;4.374;2022-07-23T11:57:30;26.10;99.90
17178;DHT22;8704;52.006;4.374;2022-07-23T12:00:05;26.20;1.00
17178;DHT22;8704;52.006;4.374;2022-07-23T12:02:34;26.20;1.00
17178;DHT22;8704;52.006;4.374;2022-07-23T12:05:02;26.50;99.90
17178;DHT22;8704;52.006;4.374;2022-07-23T12:07:33;26.70;1.00
17178;DHT22;8704;52.006;4.374;2022-07-23T12:10:04;26.30;99.90
17178;DHT22;8704;52.006;4.374;2022-07-23T12:12:37;26.70;47.40
17178;DHT22;8704;52.006;4.374;2022-07-23T12:15:08;26.80;99.90
17178;DHT22;8704;52.006;4.374;2022-07-23T12:17:38;26.80;1.00
17178;DHT22;8704;52.006;4.374;2022-07-23T12:20:09;26.70;1.00
17178;DHT22;8704;52.006;4.374;2022-07-23T12:22:39;27.10;1.00
17178;DHT22;8704;52.006;4.374;2022-07-23T12:25:10;27.20;99.90
17178;DHT22;8704;52.006;4.374;2022-07-23T12:27:38;27.00;99.90
17178;DHT22;8704;52.006;4.374;2022-07-23T12:30:30;27.10;99.90
17178;DHT22;8704;52.006;4.374;2022-07-23T12:33:01;27.00;99.90
17178;DHT22;8704;52.006;4.374;2022-07-23T12:35:37;27.30;99.90
17178;DHT22;8704;52.006;4.374;2022-07-23T12:38:08;27.20;99.90
17178;DHT22;8704;52.006;4.374;2022-07-23T12:40:42;27.10;99.90
17178;DHT22;8704;52.006;4.374;2022-07-23T12:43:19;27.20;99.90
17178;DHT22;8704;52.006;4.374;2022-07-23T12:45:50;27.30;1.00
17178;DHT22;8704;52.006;4.374;2022-07-23T12:48:20;27.40;99.90
17178;DHT22;8704;52.006;4.374;2022-07-23T12:50:59;27.70;99.90
17178;DHT22;8704;52.006;4.374;2022-07-23T12:53:29;28.20;99.90
17178;DHT22;8704;52.006;4.374;2022-07-23T12:56:01;28.20;99.90
17178;DHT22;8704;52.006;4.374;2022-07-23T12:58:51;27.80;99.90
17178;DHT22;8704;52.006;4.374;2022-07-23T13:01:25;28.40;1.00
17178;DHT22;8704;52.006;4.374;2022-07-23T13:03:58;28.50;99.90
17178;DHT22;8704;52.006;4.374;2022-07-23T13:06:28;28.60;99.90
17178;DHT22;8704;52.006;4.374;2022-07-23T13:08:57;28.40;99.90
17178;DHT22;8704;52.006;4.374;2022-07-23T13:11:27;28.20;1.00
17178;DHT22;8704;52.006;4.374;2022-07-23T13:13:57;28.10;1.00
17178;DHT22;8704;52.006;4.374;2022-07-23T13:16:28;28.10;1.00
17178;DHT22;8704;52.006;4.374;2022-07-23T13:18:57;28.00;99.90
17178;DHT22;8704;52.006;4.374;2022-07-23T13:21:27;27.80;1.00
17178;DHT22;8704;52.006;4.374;2022-07-23T13:23:55;28.20;99.90
17178;DHT22;8704;52.006;4.374;2022-07-23T13:26:23;28.50;99.90
17178;DHT22;8704;52.006;4.374;2022-07-23T13:28:51;28.60;1.00
17178;DHT22;8704;52.006;4.374;2022-07-23T13:31:19;29.10;1.00
17178;DHT22;8704;52.006;4.374;2022-07-23T13:33:51;29.10;1.00
17178;DHT22;8704;52.006;4.374;2022-07-23T13:36:19;29.50;99.90
17178;DHT22;8704;52.006;4.374;2022-07-23T13:38:47;29.80;99.90
17178;DHT22;8704;52.006;4.374;2022-07-23T13:41:16;29.70;99.90
17178;DHT22;8704;52.006;4.374;2022-07-23T13:43:45;30.00;99.90
17178;DHT22;8704;52.006;4.374;2022-07-23T13:46:13;29.90;10.60
17178;DHT22;8704;52.006;4.374;2022-07-23T13:48:41;30.30;99.90
17178;DHT22;8704;52.006;4.374;2022-07-23T13:51:11;30.20;15.20
17178;DHT22;8704;52.006;4.374;2022-07-23T13:53:39;30.00;1.00
17178;DHT22;8704;52.006;4.374;2022-07-23T13:56:07;30.10;7.20
17178;DHT22;8704;52.006;4.374;2022-07-23T13:58:35;30.50;17.20
17178;DHT22;8704;52.006;4.374;2022-07-23T14:01:03;30.90;40.20
17178;DHT22;8704;52.006;4.374;2022-07-23T14:03:32;30.80;22.20
17178;DHT22;8704;52.006;4.374;2022-07-23T14:06:00;30.90;55.80
17178;DHT22;8704;52.006;4.374;2022-07-23T14:08:30;30.90;99.90
17178;DHT22;8704;52.006;4.374;2022-07-23T14:10:58;30.80;1.00
17178;DHT22;8704;52.006;4.374;2022-07-23T14:13:26;30.70;1.00
17178;DHT22;8704;52.006;4.374;2022-07-23T14:15:56;31.10;1.00
17178;DHT22;8704;52.006;4.374;2022-07-23T14:18:24;31.30;1.00
17178;DHT22;8704;52.006;4.374;2022-07-23T14:20:59;31.40;1.00
17178;DHT22;8704;52.006;4.374;2022-07-23T14:23:27;31.90;1.00
17178;DHT22;8704;52.006;4.374;2022-07-23T14:25:57;32.20;1.00
17178;DHT22;8704;52.006;4.374;2022-07-23T14:28:25;32.50;1.00
17178;DHT22;8704;52.006;4.374;2022-07-23T14:30:54;32.90;1.00
17178;DHT22;8704;52.006;4.374;2022-07-23T14:33:22;33.10;1.00
17178;DHT22;8704;52.006;4.374;2022-07-23T14:35:52;32.30;1.00
17178;DHT22;8704;52.006;4.374;2022-07-23T14:38:20;32.20;1.00
17178;DHT22;8704;52.006;4.374;2022-07-23T14:40:48;32.70;1.00
17178;DHT22;8704;52.006;4.374;2022-07-23T14:43:17;33.00;1.00
17178;DHT22;8704;52.006;4.374;2022-07-23T14:45:45;33.00;1.00
17178;DHT22;8704;52.006;4.374;2022-07-23T14:48:15;33.30;1.00
17178;DHT22;8704;52.006;4.374;2022-07-23T14:50:43;33.50;1.00
17178;DHT22;8704;52.006;4.374;2022-07-23T14:53:11;33.60;1.00
17178;DHT22;8704;52.006;4.374;2022-07-23T14:55:39;33.70;1.00
17178;DHT22;8704;52.006;4.374;2022-07-23T14:58:07;33.70;1.00
17178;DHT22;8704;52.006;4.374;2022-07-23T15:00:37;33.70;1.00
17178;DHT22;8704;52.006;4.374;2022-07-23T15:03:05;33.50;1.00
17178;DHT22;8704;52.006;4.374;2022-07-23T15:05:34;33.70;1.00
17178;DHT22;8704;52.006;4.374;2022-07-23T15:08:03;33.70;1.00
17178;DHT22;8704;52.006;4.374;2022-07-23T15:10:35;33.70;1.00
17178;DHT22;8704;52.006;4.374;2022-07-23T15:13:04;33.60;1.00
17178;DHT22;8704;52.006;4.374;2022-07-23T15:15:34;33.80;1.00
17178;DHT22;8704;52.006;4.374;2022-07-23T15:18:04;34.10;1.00
17178;DHT22;8704;52.006;4.374;2022-07-23T15:20:33;34.10;1.00
17178;DHT22;8704;52.006;4.374;2022-07-23T15:23:06;34.10;1.00
17178;DHT22;8704;52.006;4.374;2022-07-23T15:25:36;34.20;1.00
17178;DHT22;8704;52.006;4.374;2022-07-23T15:28:04;34.00;1.00
17178;DHT22;8704;52.006;4.374;2022-07-23T15:30:35;33.70;1.00
17178;DHT22;8704;52.006;4.374;2022-07-23T15:33:05;34.00;1.00
17178;DHT22;8704;52.006;4.374;2022-07-23T15:35:45;33.70;1.00
17178;DHT22;8704;52.006;4.374;2022-07-23T15:38:14;34.20;1.00
17178;DHT22;8704;52.006;4.374;2022-07-23T15:40:51;34.40;1.00
17178;DHT22;8704;52.006;4.374;2022-07-23T15:43:19;34.50;1.00
17178;DHT22;8704;52.006;4.374;2022-07-23T15:45:48;34.50;1.00
17178;DHT22;8704;52.006;4.374;2022-07-23T15:48:19;34.30;1.00
17178;DHT22;8704;52.006;4.374;2022-07-23T15:50:48;34.10;1.00
17178;DHT22;8704;52.006;4.374;2022-07-23T15:53:16;34.20;1.00
17178;DHT22;8704;52.006;4.374;2022-07-23T15:56:01;34.70;1.00
17178;DHT22;8704;52.006;4.374;2022-07-23T15:58:30;34.90;1.00
17178;DHT22;8704;52.006;4.374;2022-07-23T16:00:58;34.90;1.00
17178;DHT22;8704;52.006;4.374;2022-07-23T16:03:32;34.90;1.00
17178;DHT22;8704;52.006;4.374;2022-07-23T16:06:00;35.20;1.00
17178;DHT22;8704;52.006;4.374;2022-07-23T16:08:28;35.20;1.00
17178;DHT22;8704;52.006;4.374;2022-07-23T16:10:56;34.80;1.00